Time;durP1;ratioP1;P1;durP2;ratioP2;P2;SDS_P1;SDS_P2;PMS_P1;PMS_P2;Temp;Humidity;BMP_temperature;BMP_pressure;BME280_temperature;BME280_humidity;BME280_pressure;Samples;Min_cycle;Max_cycle;Signal;HPM_P1;HPM_P2
2022/11/29 02:41:53;;;;;;;16.45;11.73;;;;;;;7.69;92.35;99608.34;1086486;46;20049;-75
2022/11/29 02:43:14;;;;;;;16.13;11.45;;;;;;;7.72;92.20;99607.22;1085459;54;20114;-76
2022/11/29 02:44:47;;;;;;;14.52;11.20;;;;;;;7.73;91.98;99607.06;1085477;54;20986;-75
2022/11/29 02:45:58;;;;;;;16.08;11.20;;;;;;;7.78;91.97;99612.84;1085659;54;20114;-78
2022/11/29 02:47:16;;;;;;;17.45;11.18;;;;;;;7.87;91.59;99615.66;1085913;54;20031;-78
2022/11/29 02:48:39;;;;;;;14.40;10.70;;;;;;;7.94;91.22;99616.78;1085641;54;20061;-78
2022/11/29 02:50:07;;;;;;;15.75;10.38;;;;;;;7.90;90.92;99616.22;1086094;39;20530;-79
2022/11/29 02:51:13;;;;;;;17.42;12.02;;;;;;;7.87;91.67;99613.81;1085790;54;20121;-79
2022/11/29 02:52:22;;;;;;;15.88;11.40;;;;;;;7.84;91.75;99608.75;1085584;47;20980;-79
2022/11/29 02:53:29;;;;;;;16.02;11.80;;;;;;;7.88;91.60;99612.84;1085925;54;20090;-78
2022/11/29 02:54:44;;;;;;;16.52;12.27;;;;;;;7.85;91.63;99613.09;1085928;54;20683;-76
2022/11/29 02:55:54;;;;;;;16.63;11.10;;;;;;;7.94;91.20;99617.59;1085970;54;20098;-75
2022/11/29 02:57:03;;;;;;;;;;;;;;;7.91;90.82;99617.91;1086051;54;20069;-77
2022/11/29 02:58:16;;;;;;;16.80;11.23;;;;;;;7.91;91.11;99611.72;1088441;31;20554;-78
2022/11/29 02:59:35;;;;;;;14.55;11.68;;;;;;;7.85;91.36;99618.44;1085940;54;20074;-78
2022/11/29 03:00:46;;;;;;;13.15;10.50;;;;;;;7.89;91.60;99614.53;1085895;54;20102;-78
2022/11/29 03:02:00;;;;;;;13.95;10.93;;;;;;;7.91;91.24;99623.22;1086303;39;20898;-78
2022/11/29 03:03:09;;;;;;;18.42;12.32;;;;;;;7.92;91.15;99621.38;1085687;54;20066;-78
2022/11/29 03:04:24;;;;;;;17.63;12.48;;;;;;;7.89;91.43;99619.84;1085703;54;20042;-78
2022/11/29 03:05:37;;;;;;;16.13;12.27;;;;;;;7.89;91.27;99617.19;1086101;54;20042;-75
2022/11/29 03:06:52;;;;;;;14.52;11.55;;;;;;;7.96;91.12;99620.97;1085968;54;20038;-78
2022/11/29 03:08:02;;;;;;;15.65;11.20;;;;;;;8.05;90.75;99618.47;1086113;54;20042;-76
2022/11/29 03:09:15;;;;;;;15.02;11.82;;;;;;;8.08;90.35;99623.50;1085532;54;20038;-76
2022/11/29 03:10:26;;;;;;;12.73;10.13;;;;;;;8.10;90.24;99626.88;1085223;54;20050;-76
2022/11/29 03:11:39;;;;;;;13.38;10.32;;;;;;;8.06;90.16;99623.66;1085706;54;20821;-76
2022/11/29 03:12:47;;;;;;;13.90;10.57;;;;;;;8.11;90.16;99631.22;1086249;54;20735;-76
2022/11/29 03:14:02;;;;;;;12.93;10.10;;;;;;;8.22;89.95;99622.25;1086417;46;20042;-76
2022/11/29 03:15:18;;;;;;;12.10;9.73;;;;;;;8.25;89.67;99629.97;1085986;54;20058;-76
2022/11/29 03:16:31;;;;;;;12.00;9.57;;;;;;;8.26;89.36;99624.50;1086082;54;20046;-76
2022/11/29 03:17:47;;;;;;;12.52;9.75;;;;;;;8.30;89.43;99625.06;1085988;54;20043;-76
2022/11/29 03:19:06;;;;;;;13.10;9.77;;;;;;;8.35;89.13;99633.47;1086565;39;20535;-76
2022/11/29 03:20:23;;;;;;;11.93;8.75;;;;;;;8.41;89.12;99626.72;1087139;46;20035;-77
2022/11/29 03:22:48;;;;;;;12.45;8.90;;;;;;;8.49;88.74;99629.59;1086991;54;20055;-76
2022/11/29 03:24:06;;;;;;;11.80;9.05;;;;;;;8.44;88.69;99629.13;1087819;46;20039;-76
2022/11/29 03:25:32;;;;;;;11.68;8.90;;;;;;;8.46;88.51;99631.63;1089301;39;20614;-77
2022/11/29 03:27:12;;;;;;;13.80;10.07;;;;;;;8.32;88.21;99628.44;1086522;54;20038;-76
2022/11/29 03:28:20;;;;;;;19.10;10.63;;;;;;;8.27;88.71;99628.84;1085051;54;20042;-76
2022/11/29 03:29:31;;;;;;;14.38;10.45;;;;;;;8.27;88.89;99628.00;1085845;54;20046;-76
2022/11/29 03:30:36;;;;;;;14.55;10.70;;;;;;;8.27;88.75;99634.19;1086326;54;20046;-76
2022/11/29 03:31:49;;;;;;;14.32;9.30;;;;;;;8.35;88.47;99625.50;1086030;54;20082;-76
2022/11/29 03:32:57;;;;;;;14.27;9.77;;;;;;;8.36;88.59;99629.81;1086300;54;20042;-76
2022/11/29 03:34:14;;;;;;;12.90;8.95;;;;;;;8.44;88.19;99626.44;1086631;54;20045;-76
2022/11/29 03:35:23;;;;;;;10.90;8.57;;;;;;;8.42;87.88;99628.41;1087076;54;20054;-76
2022/11/29 03:36:37;;;;;;;12.30;9.25;;;;;;;8.46;88.22;99636.97;1086512;54;20045;-76
2022/11/29 03:37:47;;;;;;;12.65;10.02;;;;;;;8.47;87.94;99633.31;1086950;54;20126;-76
2022/11/29 03:38:54;;;;;;;11.25;8.75;;;;;;;8.50;88.21;99639.22;1086919;54;20042;-76
2022/11/29 03:40:02;;;;;;;11.95;8.77;;;;;;;8.52;87.63;99634.59;1086730;54;20684;-76
2022/11/29 03:41:16;;;;;;;12.57;9.20;;;;;;;8.52;87.74;99637.28;1086734;54;20049;-76
2022/11/29 03:42:23;;;;;;;11.95;8.95;;;;;;;8.58;87.78;99635.88;1086575;54;20050;-76
2022/11/29 03:43:38;;;;;;;13.20;9.30;;;;;;;8.58;87.52;99639.38;1086607;54;20102;-76
2022/11/29 03:44:50;;;;;;;12.50;8.70;;;;;;;8.60;87.32;99635.75;1086447;54;20118;-76
2022/11/29 03:46:00;;;;;;;11.45;8.52;;;;;;;8.62;87.72;99639.09;1086871;54;20059;-78
2022/11/29 03:47:07;;;;;;;13.40;9.35;;;;;;;8.58;87.47;99646.53;1086588;54;20065;-76
2022/11/29 03:48:16;;;;;;;10.65;8.25;;;;;;;8.65;87.36;99642.31;1086645;54;20038;-76
2022/11/29 03:49:22;;;;;;;11.75;8.45;;;;;;;8.67;87.07;99642.19;1086637;54;20046;-76
2022/11/29 03:50:34;;;;;;;10.98;8.20;;;;;;;8.70;87.20;99644.53;1086458;54;20047;-76
2022/11/29 03:51:48;;;;;;;13.43;8.55;;;;;;;8.71;87.08;99644.41;1086290;54;20077;-76
2022/11/29 03:52:56;;;;;;;11.65;8.15;;;;;;;8.74;86.79;99640.63;1086621;54;20038;-76
2022/11/29 03:54:02;;;;;;;11.68;8.98;;;;;;;8.74;86.87;99651.28;1086386;54;20039;-76
2022/11/29 03:55:20;;;;;;;11.98;8.45;;;;;;;8.76;86.63;99645.78;1086790;39;20531;-76
2022/11/29 03:56:29;;;;;;;12.63;8.35;;;;;;;8.78;86.87;99651.84;1086371;54;20086;-76
2022/11/29 03:57:45;;;;;;;11.00;8.50;;;;;;;8.77;86.66;99647.47;1086480;54;20037;-76
2022/11/29 03:58:57;;;;;;;12.32;8.80;;;;;;;8.75;86.64;99647.63;1086391;54;20118;-76
2022/11/29 04:00:06;;;;;;;10.93;7.50;;;;;;;8.78;86.84;99647.34;1086421;54;20050;-76
2022/11/29 04:01:32;;;;;;;11.98;8.00;;;;;;;8.77;86.37;99648.34;1086571;54;20050;-77
2022/11/29 04:03:12;;;;;;;11.82;8.77;;;;;;;8.76;86.13;99648.47;1087560;39;20512;-77
2022/11/29 04:04:45;;;;;;;12.20;8.15;;;;;;;8.71;86.58;99646.22;1085885;54;20038;-76
2022/11/29 04:06:20;;;;;;;12.45;8.55;;;;;;;8.70;85.97;99650.72;1085953;54;20063;-77
2022/11/29 04:07:36;;;;;;;12.43;8.68;;;;;;;8.70;86.58;99644.53;1088331;31;20695;-77
2022/11/29 04:09:13;;;;;;;12.43;8.30;;;;;;;8.71;86.32;99647.09;1086045;54;20046;-76
2022/11/29 04:10:24;;;;;;;12.45;7.88;;;;;;;8.70;86.74;99647.19;1086036;54;20153;-76
2022/11/29 04:11:59;;;;;;;13.02;8.13;;;;;;;8.65;86.30;99649.47;1086785;39;20905;-76
2022/11/29 04:13:34;;;;;;;12.93;8.60;;;;;;;8.64;86.36;99653.13;1085795;54;20125;-76
2022/11/29 04:15:13;;;;;;;16.75;10.40;;;;;;;8.55;86.64;99646.78;1086040;54;20034;-76
2022/11/29 04:16:50;;;;;;;18.20;11.02;;;;;;;8.50;86.78;99649.06;1085964;54;20050;-76
2022/11/29 04:18:19;;;;;;;13.98;9.70;;;;;;;8.50;87.12;99649.88;1085760;54;20038;-77
2022/11/29 04:19:53;;;;;;;13.43;8.57;;;;;;;8.51;86.94;99656.91;1085995;54;20106;-77
2022/11/29 04:21:22;;;;;;;15.40;9.75;;;;;;;8.50;86.89;99649.88;1086371;54;20053;-76
2022/11/29 04:22:42;;;;;;;16.00;10.63;;;;;;;8.53;87.18;99649.63;1086306;54;20034;-77
2022/11/29 04:24:03;;;;;;;13.80;8.93;;;;;;;8.55;86.86;99658.31;1086696;46;20061;-77
2022/11/29 04:25:29;;;;;;;15.65;9.85;;;;;;;8.53;86.59;99649.63;1087223;31;20528;-75
2022/11/29 04:27:15;;;;;;;14.88;10.48;;;;;;;8.48;87.05;99651.88;1086549;54;20107;-76
2022/11/29 04:28:44;;;;;;;15.52;10.05;;;;;;;8.46;87.16;99659.13;1085781;54;20077;-77
2022/11/29 04:30:08;;;;;;;14.10;9.68;;;;;;;8.46;87.48;99661.78;1086090;54;20027;-76
2022/11/29 04:31:23;;;;;;;15.60;9.18;;;;;;;8.49;87.24;99658.88;1085941;54;20042;-78
2022/11/29 04:32:46;;;;;;;14.63;10.13;;;;;;;8.51;86.91;99651.56;1085886;54;20822;-77
2022/11/29 04:34:28;;;;;;;12.32;8.63;;;;;;;8.47;86.69;99660.84;1085777;54;20034;-76
2022/11/29 04:35:40;;;;;;;13.43;9.05;;;;;;;8.47;87.26;99655.50;1086249;54;20101;-78
2022/11/29 04:37:04;;;;;;;14.27;8.85;;;;;;;8.49;86.82;99658.88;1087555;46;20035;-78
2022/11/29 04:38:46;;;;;;;14.43;10.27;;;;;;;8.42;87.09;99669.22;1085759;54;20094;-76
2022/11/29 04:40:11;;;;;;;12.88;8.93;;;;;;;8.43;87.40;99662.06;1085728;54;20094;-75
2022/11/29 04:41:38;;;;;;;17.33;11.63;;;;;;;8.39;87.50;99671.34;1087434;39;20983;-76
2022/11/29 04:42:58;;;;;;;14.75;9.18;;;;;;;8.38;87.41;99672.31;1085856;54;20038;-76
2022/11/29 04:44:31;;;;;;;13.25;9.63;;;;;;;8.33;87.95;99680.72;1086164;54;20069;-75
2022/11/29 04:45:49;;;;;;;17.25;11.43;;;;;;;8.31;88.07;99677.34;1086933;39;20794;-75
2022/11/29 04:47:05;;;;;;;14.05;9.75;;;;;;;8.31;87.54;99680.00;1086005;54;20077;-77
2022/11/29 04:48:31;;;;;;;15.35;10.02;;;;;;;8.34;87.84;99679.75;1086012;54;20054;-76
2022/11/29 04:49:54;;;;;;;14.70;9.95;;;;;;;8.34;87.84;99682.41;1086302;39;20669;-76
2022/11/29 04:51:10;;;;;;;14.40;9.93;;;;;;;8.40;87.25;99681.84;1085989;54;20122;-76
2022/11/29 04:52:30;;;;;;;15.15;9.90;;;;;;;8.39;87.15;99679.31;1086399;54;20062;-76
2022/11/29 04:53:49;;;;;;;14.65;9.45;;;;;;;8.36;87.61;99675.09;1085925;54;20042;-76
2022/11/29 04:54:58;;;;;;;12.18;8.45;;;;;;;8.40;87.58;99675.69;1085722;54;20065;-76
2022/11/29 04:56:14;;;;;;;17.05;9.25;;;;;;;8.38;87.37;99686.44;1085973;54;20063;-76
2022/11/29 04:57:26;;;;;;;13.90;8.27;;;;;;;8.46;87.39;99680.44;1085689;54;20094;-77
2022/11/29 04:58:37;;;;;;;14.32;8.77;;;;;;;8.48;87.04;99686.50;1085957;54;20046;-77
2022/11/29 04:59:45;;;;;;;11.65;7.53;;;;;;;8.50;87.20;99687.19;1086071;54;20058;-77
2022/11/29 05:00:57;;;;;;;15.00;9.98;;;;;;;8.46;86.95;99683.09;1086100;54;20172;-76
2022/11/29 05:02:11;;;;;;;14.40;9.25;;;;;;;8.47;87.09;99686.59;1086045;54;20050;-76
2022/11/29 05:03:24;;;;;;;15.35;9.77;;;;;;;8.42;87.21;99689.69;1085828;54;20031;-77
2022/11/29 05:04:37;;;;;;;15.93;10.23;;;;;;;8.40;87.39;99691.66;1086022;54;20068;-76
2022/11/29 05:05:46;;;;;;;14.98;9.25;;;;;;;8.40;87.12;99692.50;1086318;54;20046;-76
2022/11/29 05:07:03;;;;;;;16.92;10.35;;;;;;;8.39;87.43;99693.47;1086258;54;20101;-76
2022/11/29 05:08:24;;;;;;;15.80;10.65;;;;;;;8.38;87.29;99686.44;1086722;39;20355;-76
2022/11/29 05:09:38;;;;;;;16.40;10.00;;;;;;;8.39;87.07;99696.13;1087994;39;20192;-77
2022/11/29 05:10:50;;;;;;;15.85;10.27;;;;;;;8.37;87.16;99697.25;1086278;54;20038;-76
2022/11/29 05:12:05;;;;;;;17.83;11.48;;;;;;;8.33;87.37;99691.38;1086818;39;20543;-76
2022/11/29 05:13:16;;;;;;;15.65;11.02;;;;;;;8.34;87.58;99692.19;1086554;54;20090;-76
2022/11/29 05:14:29;;;;;;;18.00;10.60;;;;;;;8.30;87.46;99696.97;1086365;54;20046;-76
2022/11/29 05:15:56;;;;;;;16.02;10.32;;;;;;;8.26;87.75;99698.25;1086430;54;20038;-77
2022/11/29 05:17:18;;;;;;;17.48;9.85;;;;;;;8.25;87.45;99704.53;1086657;46;20109;-77
2022/11/29 05:18:43;;;;;;;20.88;11.30;;;;;;;8.20;87.90;99707.63;1086448;54;20177;-76
2022/11/29 05:19:57;;;;;;;14.25;9.52;;;;;;;8.24;87.70;99702.84;1086165;54;20054;-77
2022/11/29 05:21:10;;;;;;;15.45;10.25;;;;;;;8.23;87.58;99703.84;1086704;46;20035;-76
2022/11/29 05:22:40;;;;;;;13.95;8.75;;;;;;;8.25;87.55;99700.03;1086335;54;20050;-76
2022/11/29 05:23:53;;;;;;;15.38;10.10;;;;;;;8.25;87.56;99710.69;1085724;54;20176;-76
2022/11/29 05:25:07;;;;;;;13.52;8.75;;;;;;;8.26;87.44;99706.22;1085507;54;20042;-76
2022/11/29 05:26:14;;;;;;;14.43;9.55;;;;;;;8.23;87.44;99703.84;1085738;54;20054;-76
2022/11/29 05:27:28;;;;;;;16.00;10.45;;;;;;;8.20;87.39;99701.44;1085842;54;20072;-76
2022/11/29 05:28:37;;;;;;;14.75;9.40;;;;;;;8.24;87.47;99701.03;1085756;54;20050;-76
2022/11/29 05:29:47;;;;;;;15.32;9.88;;;;;;;8.27;87.50;99713.22;1085960;54;20042;-76
2022/11/29 05:31:14;;;;;;;14.23;9.40;;;;;;;8.22;87.35;99708.31;1085959;54;20098;-76
2022/11/29 05:32:31;;;;;;;14.23;9.95;;;;;;;8.19;87.29;99705.94;1085882;54;20085;-76
2022/11/29 05:34:00;;;;;;;15.63;10.43;;;;;;;8.15;87.32;99711.66;1085870;54;20033;-77
2022/11/29 05:35:26;;;;;;;14.25;9.68;;;;;;;8.12;88.01;99710.13;1085796;54;20034;-76
2022/11/29 05:36:38;;;;;;;16.95;10.52;;;;;;;8.08;88.29;99716.69;1087254;39;20612;-76
2022/11/29 05:37:50;;;;;;;15.88;9.63;;;;;;;8.16;87.97;99710.69;1086232;46;20764;-76
2022/11/29 05:39:10;;;;;;;14.00;8.93;;;;;;;8.19;87.73;99716.59;1085707;54;20162;-76
2022/11/29 05:40:43;;;;;;;14.85;9.10;;;;;;;8.19;87.77;99710.41;1086952;46;20046;-76
2022/11/29 05:42:04;;;;;;;14.70;9.50;;;;;;;8.20;87.55;99707.63;1085648;54;20150;-77
2022/11/29 05:43:20;;;;;;;13.10;8.43;;;;;;;8.21;87.42;99717.28;1085873;47;20099;-76
2022/11/29 05:44:31;;;;;;;14.00;8.73;;;;;;;8.19;87.38;99719.25;1085912;54;20054;-77
2022/11/29 05:45:44;;;;;;;14.35;9.45;;;;;;;8.17;87.77;99718.53;1085606;54;20048;-76
2022/11/29 05:46:56;;;;;;;14.93;9.35;;;;;;;8.21;87.44;99719.97;1086056;54;20141;-75
2022/11/29 05:48:04;;;;;;;14.05;8.77;;;;;;;8.23;87.27;99717.16;1085734;54;20093;-76
2022/11/29 05:49:27;;;;;;;15.10;9.70;;;;;;;8.21;87.48;99719.97;1085797;54;20038;-76
2022/11/29 05:50:34;;;;;;;14.88;9.82;;;;;;;8.21;87.53;99721.75;1086687;31;20533;-76
2022/11/29 05:51:47;;;;;;;14.20;9.27;;;;;;;8.19;87.74;99716.59;1085571;54;20045;-76
2022/11/29 05:52:55;;;;;;;14.32;9.63;;;;;;;8.13;87.40;99711.78;1085703;46;20073;-76
2022/11/29 05:54:09;;;;;;;15.38;10.10;;;;;;;8.15;87.66;99719.66;1085696;54;20667;-76
2022/11/29 05:55:31;;;;;;;15.07;10.90;;;;;;;8.10;87.56;99725.41;1085936;54;20050;-76
2022/11/29 05:56:46;;;;;;;16.30;10.40;;;;;;;8.07;87.95;99717.66;1085880;54;20042;-76
2022/11/29 05:57:57;;;;;;;14.52;9.40;;;;;;;8.12;87.86;99718.13;1086019;54;20050;-76
2022/11/29 05:59:02;;;;;;;15.40;9.68;;;;;;;8.11;87.71;99716.44;1085556;54;20098;-76
2022/11/29 06:00:08;;;;;;;13.55;9.50;;;;;;;8.09;87.74;99721.88;1085716;54;20061;-76
2022/11/29 06:01:19;;;;;;;13.50;9.15;;;;;;;8.10;87.91;99725.41;1086000;46;20090;-76
2022/11/29 06:02:34;;;;;;;14.48;9.27;;;;;;;8.10;87.89;99728.06;1086367;54;20034;-76
2022/11/29 06:03:40;;;;;;;12.45;8.40;;;;;;;8.09;88.05;99731.69;1086279;54;20077;-76
2022/11/29 06:05:02;;;;;;;13.45;8.25;;;;;;;8.14;87.79;99729.44;1086187;54;20038;-76
2022/11/29 06:06:11;;;;;;;14.35;8.90;;;;;;;8.13;87.69;99733.09;1087257;46;20041;-76
2022/11/29 06:07:21;;;;;;;14.63;8.90;;;;;;;8.15;87.98;99741.78;1086060;54;20033;-76
2022/11/29 06:08:34;;;;;;;12.95;8.88;;;;;;;8.17;87.93;99739.00;1086387;54;20069;-76
2022/11/29 06:09:47;;;;;;;13.18;9.23;;;;;;;8.12;87.64;99742.09;1086161;54;20038;-77
2022/11/29 06:10:56;;;;;;;12.30;8.50;;;;;;;8.20;87.83;99738.72;1086223;54;20631;-76
2022/11/29 06:12:06;;;;;;;13.95;8.82;;;;;;;8.22;87.57;99742.91;1086428;54;20050;-76
2022/11/29 06:13:18;;;;;;;12.40;8.70;;;;;;;8.20;87.68;99744.91;1086153;54;20065;-76
2022/11/29 06:14:44;;;;;;;15.57;9.65;;;;;;;8.22;87.87;99742.09;1086063;54;20086;-76
2022/11/29 06:16:20;;;;;;;14.00;8.90;;;;;;;8.20;87.64;99739.56;1085792;54;20117;-76
2022/11/29 06:17:43;;;;;;;12.77;7.80;;;;;;;8.21;87.30;99743.06;1086395;54;20054;-76
2022/11/29 06:19:10;;;;;;;13.02;8.73;;;;;;;8.17;87.20;99750.50;1085951;54;20090;-76
2022/11/29 06:20:35;;;;;;;12.25;7.93;;;;;;;8.15;87.20;99741.78;1086055;54;20046;-76
2022/11/29 06:21:45;;;;;;;13.27;9.05;;;;;;;8.18;87.30;99743.31;1087171;39;20651;-76
2022/11/29 06:23:06;;;;;;;15.37;9.87;;;;;;;8.10;87.46;99741.38;1086117;54;20031;-76
2022/11/29 06:24:35;;;;;;;16.40;9.88;;;;;;;8.07;87.62;99746.94;1086190;54;20258;-76
2022/11/29 06:25:54;;;;;;;14.65;9.35;;;;;;;8.07;87.97;99749.63;1086053;54;20094;-76
2022/11/29 06:27:21;;;;;;;12.55;8.98;;;;;;;8.08;88.19;99752.13;1086184;54;20045;-76
2022/11/29 06:28:32;;;;;;;14.43;8.93;;;;;;;8.10;87.84;99750.19;1086026;54;20042;-76
2022/11/29 06:29:43;;;;;;;12.85;8.80;;;;;;;8.14;87.89;99755.25;1086374;54;20038;-76
2022/11/29 06:31:02;;;;;;;12.68;9.02;;;;;;;8.15;87.59;99755.09;1086132;54;20050;-76
2022/11/29 06:32:16;;;;;;;11.90;8.75;;;;;;;8.13;87.30;99751.72;1086177;54;20065;-76
2022/11/29 06:33:24;;;;;;;11.32;8.00;;;;;;;8.14;87.42;99756.06;1086067;54;20030;-76
2022/11/29 06:34:39;;;;;;;11.77;8.43;;;;;;;8.12;87.55;99744.75;1086138;54;20046;-75
2022/11/29 06:35:51;;;;;;;11.35;8.02;;;;;;;8.15;87.63;99756.94;1086351;54;20050;-76
2022/11/29 06:36:57;;;;;;;11.82;7.72;;;;;;;8.15;87.52;99757.75;1086154;54;20153;-76
2022/11/29 06:38:06;;;;;;;10.13;7.03;;;;;;;8.16;87.46;99755.97;1086606;46;20057;-76
2022/11/29 06:39:08;;;;;;;9.65;7.13;;;;;;;8.17;87.34;99757.66;1086785;47;20037;-76
2022/11/29 06:40:16;;;;;;;9.43;6.85;;;;;;;8.08;87.45;99759.28;1086215;54;20042;-76
2022/11/29 06:41:24;;;;;;;11.45;6.82;;;;;;;8.14;87.30;99768.56;1086044;54;20082;-76
2022/11/29 06:42:25;;;;;;;10.88;7.55;;;;;;;8.16;87.37;99762.13;1086050;54;20054;-76
2022/11/29 06:43:30;;;;;;;10.23;7.38;;;;;;;8.18;87.03;99762.81;1085996;54;20038;-76
2022/11/29 06:44:32;;;;;;;9.05;6.70;;;;;;;8.21;87.12;99762.56;1088041;39;20884;-76
2022/11/29 06:45:37;;;;;;;10.90;6.43;;;;;;;8.21;87.11;99762.56;1085995;54;20038;-76
2022/11/29 06:46:45;;;;;;;11.25;7.03;;;;;;;8.27;86.90;99769.13;1085690;54;20131;-76
2022/11/29 06:47:54;;;;;;;9.75;7.07;;;;;;;8.26;87.07;99765.66;1085888;54;20038;-76
2022/11/29 06:49:02;;;;;;;9.65;7.13;;;;;;;8.28;86.74;99769.03;1087067;47;20077;-76
2022/11/29 06:50:26;;;;;;;10.90;6.65;;;;;;;8.28;86.78;99766.34;1087083;54;20030;-77
2022/11/29 06:51:39;;;;;;;10.75;7.15;;;;;;;8.24;86.43;99770.25;1086242;54;20050;-76
2022/11/29 06:52:53;;;;;;;10.82;7.05;;;;;;;8.27;86.70;99774.47;1087419;31;20756;-77
2022/11/29 06:54:07;;;;;;;12.10;7.13;;;;;;;8.27;86.74;99772.66;1086674;54;20651;-77
2022/11/29 06:55:20;;;;;;;12.13;7.63;;;;;;;8.26;87.02;99772.81;1085974;54;20121;-76
2022/11/29 06:56:28;;;;;;;12.55;7.80;;;;;;;8.25;86.99;99779.09;1086216;54;20172;-77
2022/11/29 06:57:43;;;;;;;12.02;7.80;;;;;;;8.27;86.99;99782.44;1085980;54;20039;-77
2022/11/29 06:58:56;;;;;;;10.55;7.63;;;;;;;8.23;86.79;99775.72;1085951;54;20035;-76
2022/11/29 07:00:07;;;;;;;13.63;9.10;;;;;;;8.23;87.07;99783.72;1086063;54;20065;-75
2022/11/29 07:01:19;;;;;;;12.93;10.10;;;;;;;8.17;87.27;99781.63;1085555;54;20098;-76
2022/11/29 07:02:41;;;;;;;11.93;8.63;;;;;;;8.10;87.34;99778.66;1086071;54;20636;-77
2022/11/29 07:03:58;;;;;;;11.27;8.00;;;;;;;8.14;87.59;99788.03;1085991;54;20031;-76
2022/11/29 07:05:15;;;;;;;12.07;7.78;;;;;;;8.15;87.23;99784.38;1086226;54;20038;-76
2022/11/29 07:06:20;;;;;;;12.35;8.18;;;;;;;8.11;87.64;99789.16;1086098;54;20045;-77
2022/11/29 07:07:28;;;;;;;11.57;8.48;;;;;;;8.15;87.37;99788.88;1086187;54;20150;-76
2022/11/29 07:08:32;;;;;;;12.40;8.70;;;;;;;8.14;87.19;99788.03;1086163;54;20102;-77
2022/11/29 07:09:34;;;;;;;11.75;8.40;;;;;;;8.09;87.45;99784.94;1086070;54;20573;-76
2022/11/29 07:10:41;;;;;;;10.98;8.05;;;;;;;8.05;87.67;99794.16;1086192;54;20063;-76
2022/11/29 07:11:44;;;;;;;13.23;8.55;;;;;;;8.10;87.43;99792.78;1087213;39;20441;-76
2022/11/29 07:12:51;;;;;;;11.55;8.55;;;;;;;8.11;87.25;99794.47;1086238;54;20050;-76
2022/11/29 07:13:53;;;;;;;10.10;7.55;;;;;;;8.16;87.08;99796.72;1086266;54;20114;-77
2022/11/29 07:14:58;;;;;;;10.32;7.95;;;;;;;8.16;87.24;99796.72;1086218;54;20030;-77
2022/11/29 07:16:11;;;;;;;9.93;7.18;;;;;;;8.16;87.63;99794.06;1086235;54;20042;-77
2022/11/29 07:17:25;;;;;;;11.23;7.57;;;;;;;8.21;87.20;99798.97;1086067;54;20106;-77
2022/11/29 07:18:33;;;;;;;11.93;7.45;;;;;;;8.21;87.33;99802.50;1086291;54;20075;-76
2022/11/29 07:19:46;;;;;;;9.02;6.88;;;;;;;8.20;87.28;99803.47;1086045;54;20031;-76
2022/11/29 07:20:59;;;;;;;10.95;8.05;;;;;;;8.11;87.42;99796.31;1086337;54;20046;-77
2022/11/29 07:22:08;;;;;;;11.75;8.55;;;;;;;8.12;87.68;99795.34;1086549;54;20046;-77
2022/11/29 07:23:28;;;;;;;10.88;8.27;;;;;;;8.09;87.47;99799.09;1086042;54;20627;-77
2022/11/29 07:25:01;;;;;;;13.15;9.77;;;;;;;8.10;87.59;99803.44;1086301;54;20094;-77
2022/11/29 07:26:20;;;;;;;9.63;7.60;;;;;;;8.10;87.42;99795.44;1086995;31;20663;-76
2022/11/29 07:27:30;;;;;;;10.82;8.32;;;;;;;8.14;87.42;99800.50;1086364;54;20071;-76
2022/11/29 07:28:47;;;;;;;12.50;9.27;;;;;;;8.18;87.43;99804.56;1086581;54;20094;-76
2022/11/29 07:30:01;;;;;;;12.38;8.93;;;;;;;8.20;87.15;99803.47;1088828;31;20530;-76
2022/11/29 07:31:11;;;;;;;12.85;8.60;;;;;;;8.25;87.01;99801.25;1086491;54;20042;-77
2022/11/29 07:32:22;;;;;;;11.75;8.80;;;;;;;8.24;86.81;99807.53;1086464;54;20631;-76
2022/11/29 07:33:31;;;;;;;11.57;9.02;;;;;;;8.26;86.97;99805.59;1086570;54;20111;-77
2022/11/29 07:34:42;;;;;;;12.20;8.43;;;;;;;8.26;86.87;99810.91;1086385;54;20106;-77
2022/11/29 07:35:52;;;;;;;11.65;8.70;;;;;;;8.28;86.70;99805.44;1086610;54;21009;-76
2022/11/29 07:37:02;;;;;;;12.15;8.55;;;;;;;8.30;86.90;99814.16;1086710;54;20039;-77
2022/11/29 07:38:15;;;;;;;13.23;9.60;;;;;;;8.32;86.82;99812.19;1086892;54;20034;-76
2022/11/29 07:39:31;;;;;;;11.63;8.45;;;;;;;8.31;86.70;99810.50;1086469;54;20043;-76
2022/11/29 07:40:44;;;;;;;11.68;8.85;;;;;;;8.32;86.55;99812.19;1086322;54;20091;-77
2022/11/29 07:41:55;;;;;;;12.85;9.95;;;;;;;8.25;86.54;99811.91;1086250;54;20046;-77
2022/11/29 07:43:19;;;;;;;13.73;10.07;;;;;;;8.25;86.71;99814.56;1086325;54;20102;-76
2022/11/29 07:44:31;;;;;;;15.05;9.68;;;;;;;8.23;86.75;99813.84;1086002;54;20091;-77
2022/11/29 07:45:37;;;;;;;12.20;9.63;;;;;;;8.25;86.81;99805.75;1085957;54;20054;-77
2022/11/29 07:46:38;;;;;;;15.90;10.75;;;;;;;8.26;86.82;99816.25;1085997;54;20098;-77
2022/11/29 07:47:42;;;;;;;14.02;10.45;;;;;;;8.30;86.82;99818.66;1085882;54;20034;-76
2022/11/29 07:48:43;;;;;;;15.90;10.55;;;;;;;8.31;86.69;99815.84;1085768;47;21827;-77
2022/11/29 07:49:48;;;;;;;16.60;10.45;;;;;;;8.33;86.22;99818.34;1085677;54;20027;-77
2022/11/29 07:50:49;;;;;;;14.30;10.85;;;;;;;8.34;86.46;99815.56;1086536;39;20372;-76
2022/11/29 07:51:55;;;;;;;14.05;10.50;;;;;;;8.38;86.31;99824.13;1086170;54;20038;-77
2022/11/29 07:52:57;;;;;;;13.60;10.43;;;;;;;8.38;86.21;99816.97;1085957;54;20054;-76
2022/11/29 07:54:02;;;;;;;14.50;10.40;;;;;;;8.41;86.27;99818.50;1085764;54;20082;-76
2022/11/29 07:55:11;;;;;;;16.05;10.88;;;;;;;8.41;86.17;99818.50;1085616;31;20647;-76
2022/11/29 07:56:15;;;;;;;13.57;10.05;;;;;;;8.39;86.15;99817.84;1086612;47;20107;-76
2022/11/29 07:57:16;;;;;;;13.55;10.30;;;;;;;8.41;86.02;99821.19;1085752;54;20043;-76
2022/11/29 07:58:21;;;;;;;14.30;11.80;;;;;;;8.37;85.95;99817.94;1086156;54;20073;-76
2022/11/29 07:59:22;;;;;;;15.25;11.85;;;;;;;8.34;86.04;99820.91;1087803;46;20623;-76
2022/11/29 08:00:26;;;;;;;15.20;12.27;;;;;;;8.31;86.18;99817.69;1086335;54;20031;-76
2022/11/29 08:01:30;;;;;;;14.80;11.90;;;;;;;8.27;86.05;99825.06;1086137;54;20058;-77
2022/11/29 08:02:32;;;;;;;14.27;11.90;;;;;;;8.20;86.24;99824.78;1086445;54;20042;-76
2022/11/29 08:03:36;;;;;;;15.35;11.82;;;;;;;8.23;86.32;99824.50;1086380;54;20612;-78
2022/11/29 08:04:43;;;;;;;13.77;10.55;;;;;;;8.26;86.35;99829.56;1089806;39;20357;-78
2022/11/29 08:05:45;;;;;;;14.20;11.18;;;;;;;8.27;86.38;99828.59;1086308;54;20042;-78
2022/11/29 08:06:50;;;;;;;14.63;11.82;;;;;;;8.31;86.29;99831.00;1086308;54;20430;-76
2022/11/29 08:07:53;;;;;;;13.90;11.18;;;;;;;8.33;86.05;99823.69;1086308;54;20035;-76
2022/11/29 08:08:59;;;;;;;14.55;10.65;;;;;;;8.37;85.96;99827.78;1087105;31;20542;-76
2022/11/29 08:10:01;;;;;;;16.65;10.85;;;;;;;8.34;85.97;99828.91;1086239;54;20103;-76
2022/11/29 08:11:14;;;;;;;14.70;11.50;;;;;;;8.34;85.93;99830.69;1086205;54;20039;-75
2022/11/29 08:12:18;;;;;;;14.20;11.02;;;;;;;8.30;86.05;99829.31;1086333;54;20045;-75
2022/11/29 08:13:23;;;;;;;14.13;10.23;;;;;;;8.32;86.02;99835.31;1086797;39;20497;-76
2022/11/29 08:14:27;;;;;;;14.57;10.07;;;;;;;8.34;85.88;99833.38;1086478;54;20124;-75
2022/11/29 08:15:31;;;;;;;13.55;9.70;;;;;;;8.37;85.67;99831.25;1086385;54;20050;-76
2022/11/29 08:16:35;;;;;;;12.13;9.32;;;;;;;8.38;85.58;99832.13;1087176;39;20488;-76
2022/11/29 08:17:38;;;;;;;12.13;9.63;;;;;;;8.38;85.36;99835.63;1086628;54;20058;-76
2022/11/29 08:18:42;;;;;;;14.57;9.57;;;;;;;8.38;85.46;99829.47;1087517;39;20527;-76
2022/11/29 08:19:46;;;;;;;11.75;8.82;;;;;;;8.39;85.44;99834.66;1086233;54;20038;-78
2022/11/29 08:20:50;;;;;;;14.00;10.10;;;;;;;8.41;85.34;99837.16;1086613;54;20094;-76
2022/11/29 08:21:51;;;;;;;13.38;9.32;;;;;;;8.43;85.12;99835.22;1086399;54;20116;-75
2022/11/29 08:22:57;;;;;;;13.48;9.13;;;;;;;8.44;85.32;99842.22;1086463;54;20976;-76
2022/11/29 08:23:58;;;;;;;15.55;9.30;;;;;;;8.46;85.38;99836.75;1086158;54;21046;-76
2022/11/29 08:25:03;;;;;;;11.93;9.27;;;;;;;8.43;85.21;99840.53;1085604;54;20106;-78
2022/11/29 08:26:07;;;;;;;11.70;9.32;;;;;;;8.47;85.28;99846.44;1086334;54;20045;-77
2022/11/29 08:27:11;;;;;;;13.00;10.10;;;;;;;8.43;85.23;99845.88;1086985;31;20631;-78
2022/11/29 08:28:15;;;;;;;12.13;9.55;;;;;;;8.46;85.16;99848.28;1086646;46;20042;-78
2022/11/29 08:29:20;;;;;;;13.18;10.32;;;;;;;8.38;85.12;99848.09;1086258;54;20109;-79